TimeCDT,TemperatureF,Dew PointF,Humidity,Sea Level PressureIn,VisibilityMPH,Wind Direction,Wind SpeedMPH,Gust SpeedMPH,PrecipitationIn,Events,Conditions,WindDirDegrees,DateUTC
12:53 AM,19.9,14.0,78,30.41,10.0,NW,9.2,-,N/A,,Clear,320,2014-03-25 05:53:00
1:53 AM,19.0,12.9,77,30.43,10.0,NNW,9.2,-,N/A,,Clear,330,2014-03-25 06:53:00
2:53 AM,16.0,10.9,81,30.44,10.0,NNW,8.1,-,N/A,,Clear,340,2014-03-25 07:53:00
3:53 AM,16.0,8.1,71,30.43,10.0,NNW,11.5,-,N/A,,Scattered Clouds,340,2014-03-25 08:53:00
4:53 AM,17.1,8.1,68,30.44,10.0,NNW,8.1,-,N/A,,Overcast,340,2014-03-25 09:53:00
5:53 AM,15.1,6.1,68,30.44,10.0,NNW,6.9,-,N/A,,Overcast,340,2014-03-25 10:53:00
6:53 AM,12.9,5.0,71,30.45,10.0,NNW,8.1,-,N/A,,Clear,340,2014-03-25 11:53:00
7:53 AM,10.9,5.0,77,30.46,10.0,NW,5.8,-,N/A,,Clear,310,2014-03-25 12:53:00
8:53 AM,17.1,8.1,68,30.45,10.0,WNW,4.6,-,N/A,,Clear,290,2014-03-25 13:53:00
9:53 AM,19.9,8.1,60,30.43,10.0,NW,5.8,-,N/A,,Clear,310,2014-03-25 14:53:00
10:53 AM,21.0,6.1,53,30.42,10.0,NW,5.8,-,N/A,,Clear,320,2014-03-25 15:53:00
11:53 AM,24.1,6.1,46,30.39,10.0,NW,6.9,-,N/A,,Clear,310,2014-03-25 16:53:00
12:53 PM,27.0,7.0,43,30.33,10.0,North,-9999.0,-,N/A,,Clear,0,2014-03-25 17:53:00
1:53 PM,28.0,8.1,43,30.30,10.0,NW,5.8,-,N/A,,Clear,310,2014-03-25 18:53:00
2:53 PM,30.9,8.1,38,30.25,10.0,SSW,5.8,-,N/A,,Clear,210,2014-03-25 19:53:00
3:53 PM,32.0,7.0,35,30.21,10.0,Calm,Calm,-,N/A,,Partly Cloudy,0,2014-03-25 20:53:00
4:53 PM,33.1,8.1,35,30.17,10.0,East,8.1,-,N/A,,Overcast,100,2014-03-25 21:53:00
5:53 PM,36.0,9.0,33,30.13,10.0,SSE,6.9,-,N/A,,Mostly Cloudy,150,2014-03-25 22:53:00
6:53 PM,34.0,9.0,35,30.10,10.0,ESE,11.5,-,N/A,,Mostly Cloudy,120,2014-03-25 23:53:00
7:53 PM,30.9,10.0,42,30.07,10.0,ESE,11.5,-,N/A,,Overcast,110,2014-03-26 00:53:00
8:53 PM,28.0,9.0,45,30.04,10.0,ESE,13.8,-,N/A,,Clear,110,2014-03-26 01:53:00
9:53 PM,27.0,9.0,47,30.01,10.0,ESE,12.7,-,N/A,,Clear,110,2014-03-26 02:53:00
10:53 PM,28.0,10.9,49,29.97,10.0,ESE,16.1,-,N/A,,Clear,120,2014-03-26 03:53:00
11:53 PM,27.0,10.9,51,29.93,10.0,ESE,16.1,-,N/A,,Clear,120,2014-03-26 04:53:00